createdAt,value
2019-06-01T00:00:18.770Z,84.40
2019-06-01T00:02:40.761Z,84.30
2019-06-01T00:05:05.529Z,84.40
2019-06-01T00:07:27.154Z,84.50
2019-06-01T00:09:49.630Z,84.30
2019-06-01T00:12:11.570Z,84.30
2019-06-01T00:14:33.164Z,84.00
2019-06-01T00:16:54.655Z,84.10
2019-06-01T00:19:16.158Z,84.20
2019-06-01T00:21:37.707Z,84.30
2019-06-01T00:23:59.601Z,84.70
2019-06-01T00:26:21.134Z,84.90
2019-06-01T00:28:43.733Z,85.30
2019-06-01T00:31:05.328Z,85.60
2019-06-01T00:33:26.806Z,86.10
2019-06-01T00:35:49.534Z,86.20
2019-06-01T00:38:11.231Z,86.30
2019-06-01T00:40:32.818Z,86.70
2019-06-01T00:42:54.323Z,86.90
2019-06-01T00:45:16.551Z,87.10
2019-06-01T00:47:38.510Z,87.20
2019-06-01T00:50:00.006Z,87.50
2019-06-01T00:52:21.603Z,87.50
2019-06-01T00:54:43.252Z,88.00
2019-06-01T00:57:04.700Z,88.00
2019-06-01T00:59:26.288Z,88.00
2019-06-01T01:01:47.956Z,87.90
2019-06-01T01:04:09.795Z,87.90
2019-06-01T01:06:31.321Z,88.00
2019-06-01T01:08:53.044Z,88.20
2019-06-01T01:11:14.829Z,88.50
2019-06-01T01:13:36.414Z,88.60
2019-06-01T01:15:58.037Z,88.90
2019-06-01T01:18:19.553Z,89.10
2019-06-01T01:20:41.063Z,88.90
2019-06-01T01:23:02.944Z,89.00
2019-06-01T01:25:24.519Z,88.80
2019-06-01T01:27:47.067Z,89.10
2019-06-01T01:30:08.985Z,89.20
2019-06-01T01:32:30.572Z,89.50
2019-06-01T01:34:52.163Z,89.50
2019-06-01T01:37:19.747Z,89.40
2019-06-01T01:39:41.317Z,89.30
2019-06-01T01:42:02.901Z,89.40
2019-06-01T01:44:24.421Z,89.10
2019-06-01T01:46:46.006Z,89.10
2019-06-01T01:49:07.590Z,89.30
2019-06-01T01:51:29.230Z,89.50
2019-06-01T01:53:50.836Z,89.50
2019-06-01T01:56:12.423Z,89.50
2019-06-01T01:58:34.041Z,89.40
2019-06-01T02:00:56.842Z,89.50
2019-06-01T02:03:19.264Z,89.90
2019-06-01T02:05:41.608Z,90.00
2019-06-01T02:08:05.296Z,90.10
2019-06-01T02:10:26.917Z,90.30
2019-06-01T02:12:48.442Z,90.50
2019-06-01T02:15:10.334Z,90.60
2019-06-01T02:17:31.925Z,90.60
2019-06-01T02:19:54.109Z,90.50
2019-06-01T02:22:15.782Z,90.30
2019-06-01T02:24:37.732Z,90.30
2019-06-01T02:26:59.449Z,90.40
2019-06-01T02:29:21.579Z,90.50
2019-06-01T02:31:43.107Z,90.60
2019-06-01T02:34:06.120Z,90.60
2019-06-01T02:36:27.954Z,90.50
2019-06-01T02:38:49.547Z,90.60
2019-06-01T02:41:11.749Z,90.40
2019-06-01T02:43:33.396Z,90.50
2019-06-01T02:45:56.291Z,90.40
2019-06-01T02:48:18.224Z,90.40
2019-06-01T02:50:40.628Z,90.40
2019-06-01T02:53:03.594Z,90.50
2019-06-01T02:55:25.239Z,90.40
2019-06-01T02:57:46.742Z,90.30
2019-06-01T03:00:09.017Z,90.20
2019-06-01T03:02:30.626Z,90.00
2019-06-01T03:04:53.413Z,89.80
2019-06-01T03:07:16.489Z,89.30
2019-06-01T03:09:39.098Z,88.70
2019-06-01T03:12:04.181Z,88.50
2019-06-01T03:14:28.080Z,87.80
2019-06-01T03:16:50.779Z,87.70
2019-06-01T03:19:14.865Z,86.70
2019-06-01T03:21:37.362Z,86.00
2019-06-01T03:24:03.790Z,85.80
2019-06-01T03:26:29.273Z,84.90
2019-06-01T03:28:51.164Z,84.00
2019-06-01T03:31:13.401Z,83.90
2019-06-01T03:33:35.084Z,82.60
2019-06-01T03:35:56.876Z,82.60
2019-06-01T03:38:18.890Z,82.30
2019-06-01T03:40:40.358Z,81.80
2019-06-01T03:43:02.541Z,81.40
2019-06-01T03:45:24.053Z,81.10
2019-06-01T03:47:45.558Z,79.90
2019-06-01T03:50:07.278Z,79.50
2019-06-01T03:52:28.887Z,79.50
2019-06-01T03:54:50.497Z,79.30
2019-06-01T03:57:12.098Z,78.90
2019-06-01T03:59:33.742Z,78.60
2019-06-01T04:01:55.336Z,78.40
2019-06-01T04:04:16.925Z,78.60
2019-06-01T04:06:38.408Z,78.40
2019-06-01T04:09:01.456Z,77.20
2019-06-01T04:11:23.543Z,77.60
2019-06-01T04:13:45.046Z,76.40
2019-06-01T04:16:07.908Z,76.60
2019-06-01T04:18:29.589Z,77.00
2019-06-01T04:20:51.044Z,76.70
2019-06-01T04:23:12.602Z,76.90
2019-06-01T04:25:34.099Z,76.10
2019-06-01T04:27:55.689Z,75.90
2019-06-01T04:30:20.893Z,75.40
2019-06-01T04:32:49.961Z,75.70
2019-06-01T04:35:07.367Z,75.90
2019-06-01T04:37:29.007Z,75.70
2019-06-01T04:39:50.628Z,75.30
2019-06-01T04:42:12.198Z,75.50
2019-06-01T04:44:33.706Z,75.40
2019-06-01T04:46:55.239Z,75.00
2019-06-01T04:49:16.704Z,75.00
2019-06-01T04:51:38.326Z,75.30
2019-06-01T04:53:59.962Z,74.90
2019-06-01T04:56:21.545Z,75.40
2019-06-01T04:58:43.032Z,75.80
2019-06-01T05:01:04.957Z,75.80
2019-06-01T05:03:26.571Z,74.60
2019-06-01T05:05:48.164Z,74.70
2019-06-01T05:08:12.577Z,73.90
2019-06-01T05:10:33.660Z,73.80
2019-06-01T05:12:55.266Z,72.70
2019-06-01T05:15:17.591Z,72.80
2019-06-01T05:17:39.075Z,72.00
2019-06-01T05:20:00.734Z,71.80
2019-06-01T05:22:22.313Z,71.20
2019-06-01T05:24:43.818Z,71.00
2019-06-01T05:27:05.457Z,70.60
2019-06-01T05:29:27.276Z,70.50
2019-06-01T05:31:48.858Z,70.60
2019-06-01T05:34:11.753Z,70.10
2019-06-01T05:36:33.472Z,70.00
2019-06-01T05:38:55.821Z,68.50
2019-06-01T05:41:17.339Z,68.40
2019-06-01T05:43:38.818Z,68.80
2019-06-01T05:46:00.445Z,67.00
2019-06-01T05:48:25.798Z,66.60
2019-06-01T05:50:45.272Z,65.20
2019-06-01T05:53:06.836Z,63.90
2019-06-01T05:55:30.154Z,63.50
2019-06-01T05:57:52.152Z,63.80
2019-06-01T06:00:15.016Z,62.70
2019-06-01T06:02:37.276Z,62.10
2019-06-01T06:04:59.158Z,61.00
2019-06-01T06:07:20.764Z,60.50
2019-06-01T06:09:42.366Z,60.10
2019-06-01T06:12:04.324Z,59.00
2019-06-01T06:14:25.947Z,59.20
2019-06-01T06:16:47.570Z,59.70
2019-06-01T06:19:09.171Z,59.10
2019-06-01T06:21:30.652Z,58.40
2019-06-01T06:23:52.274Z,58.20
2019-06-01T06:26:15.501Z,57.50
2019-06-01T06:28:37.314Z,56.90
2019-06-01T06:30:58.946Z,56.20
2019-06-01T06:33:21.426Z,56.90
2019-06-01T06:35:43.656Z,54.90
2019-06-01T06:38:05.161Z,54.20
2019-06-01T06:40:26.735Z,54.00
2019-06-01T06:42:48.577Z,54.20
2019-06-01T06:45:10.512Z,53.80
2019-06-01T06:47:32.142Z,54.30
2019-06-01T06:49:53.667Z,54.80
2019-06-01T06:52:15.362Z,53.60
2019-06-01T06:54:37.187Z,53.10
2019-06-01T06:56:58.775Z,53.40
2019-06-01T06:59:20.442Z,54.10
2019-06-01T07:01:41.902Z,51.50
2019-06-01T07:04:12.169Z,52.20
2019-06-01T07:06:27.667Z,53.50
2019-06-01T07:08:49.290Z,51.20
2019-06-01T07:11:12.008Z,52.80
2019-06-01T07:13:34.090Z,51.30
2019-06-01T07:15:55.619Z,50.10
2019-06-01T07:18:17.086Z,51.20
2019-06-01T07:20:38.709Z,51.70
2019-06-01T07:23:00.200Z,51.60
2019-06-01T07:25:21.833Z,52.80
2019-06-01T07:27:43.988Z,51.70
2019-06-01T07:30:06.265Z,52.20
2019-06-01T07:32:28.611Z,51.70
2019-06-01T07:34:50.463Z,51.70
2019-06-01T07:37:12.526Z,51.80
2019-06-01T07:39:34.099Z,52.20
2019-06-01T07:41:55.837Z,52.40
2019-06-01T07:44:17.514Z,52.30
2019-06-01T07:46:39.015Z,52.50
2019-06-01T07:49:00.700Z,51.00
2019-06-01T07:51:23.223Z,51.30
2019-06-01T07:53:45.117Z,51.40
2019-06-01T07:56:06.614Z,49.50
2019-06-01T07:58:28.814Z,49.20
2019-06-01T08:00:50.847Z,48.90
2019-06-01T08:03:12.338Z,49.30
2019-06-01T08:05:33.935Z,48.90
2019-06-01T08:07:55.982Z,49.90
2019-06-01T08:10:17.467Z,49.00
2019-06-01T08:12:38.937Z,49.70
2019-06-01T08:15:00.474Z,49.40
2019-06-01T08:17:22.074Z,49.70
2019-06-01T08:19:43.653Z,49.50
2019-06-01T08:22:05.323Z,50.20
2019-06-01T08:24:26.814Z,50.00
2019-06-01T08:26:48.338Z,49.20
2019-06-01T08:29:09.934Z,49.40
2019-06-01T08:31:32.271Z,49.40
2019-06-01T08:33:54.944Z,50.10
2019-06-01T08:36:16.449Z,49.40
2019-06-01T08:38:38.381Z,49.40
2019-06-01T08:40:59.978Z,50.30
2019-06-01T08:43:21.596Z,50.30
2019-06-01T08:45:43.216Z,50.60
2019-06-01T08:48:04.812Z,50.80
2019-06-01T08:50:27.688Z,50.60
2019-06-01T08:52:49.541Z,50.00
2019-06-01T08:55:11.020Z,50.10
2019-06-01T08:57:32.563Z,49.40
2019-06-01T08:59:54.145Z,49.80
2019-06-01T09:02:15.626Z,50.10
2019-06-01T09:04:37.262Z,50.50
2019-06-01T09:06:59.286Z,49.70
2019-06-01T09:09:20.752Z,48.90
2019-06-01T09:11:42.394Z,49.90
2019-06-01T09:14:04.278Z,50.70
2019-06-01T09:16:25.760Z,49.80
2019-06-01T09:18:47.401Z,49.60
2019-06-01T09:21:09.037Z,49.80
2019-06-01T09:23:31.593Z,50.10
2019-06-01T09:25:53.409Z,50.10
2019-06-01T09:28:15.038Z,49.00
2019-06-01T09:30:56.271Z,49.20
2019-06-01T09:33:17.776Z,49.00
2019-06-01T09:35:53.648Z,49.10
2019-06-01T09:38:02.696Z,49.70
2019-06-01T09:40:24.510Z,49.10
2019-06-01T09:42:46.376Z,48.80
2019-06-01T09:45:08.753Z,48.90
2019-06-01T09:47:30.981Z,49.10
2019-06-01T09:49:52.753Z,48.10
2019-06-01T09:52:14.229Z,47.80
2019-06-01T09:54:36.426Z,48.00
2019-06-01T09:56:58.561Z,49.20
2019-06-01T09:59:20.193Z,49.20
2019-06-01T10:01:41.694Z,48.20
2019-06-01T10:04:03.286Z,46.60
2019-06-01T10:06:24.880Z,47.90
2019-06-01T10:08:46.498Z,47.80
2019-06-01T10:11:07.975Z,48.10
2019-06-01T10:13:30.444Z,46.30
2019-06-01T10:15:52.290Z,46.70
2019-06-01T10:18:13.789Z,46.40
2019-06-01T10:20:35.350Z,46.70
2019-06-01T10:22:57.307Z,46.50
2019-06-01T10:25:18.904Z,46.50
2019-06-01T10:27:40.495Z,45.10
2019-06-01T10:30:07.008Z,44.70
2019-06-01T10:32:28.481Z,44.00
2019-06-01T10:34:49.992Z,44.00
2019-06-01T10:37:11.614Z,44.60
2019-06-01T10:39:33.204Z,44.30
2019-06-01T10:41:54.913Z,44.30
2019-06-01T10:44:16.642Z,45.30
2019-06-01T10:46:38.150Z,45.70
2019-06-01T10:48:59.725Z,45.80
2019-06-01T10:51:21.247Z,44.70
2019-06-01T10:53:43.801Z,44.80
2019-06-01T10:56:05.501Z,44.70
2019-06-01T10:58:27.118Z,44.60
2019-06-01T11:00:51.149Z,43.50
2019-06-01T11:03:12.397Z,44.30
2019-06-01T11:05:34.981Z,43.70
2019-06-01T11:07:56.654Z,44.10
2019-06-01T11:10:18.683Z,43.60
2019-06-01T11:12:41.082Z,42.30
2019-06-01T11:15:05.402Z,43.60
2019-06-01T11:17:26.891Z,42.00
2019-06-01T11:19:48.508Z,42.20
2019-06-01T11:22:10.098Z,41.50
2019-06-01T11:24:31.717Z,40.80
2019-06-01T11:26:53.253Z,41.50
2019-06-01T11:29:14.956Z,41.40
2019-06-01T11:31:38.176Z,42.50
2019-06-01T11:33:59.763Z,40.90
2019-06-01T11:36:21.525Z,41.40
2019-06-01T11:38:44.680Z,41.60
2019-06-01T11:41:06.894Z,40.30
2019-06-01T11:43:28.471Z,40.90
2019-06-01T11:45:49.960Z,40.60
2019-06-01T11:48:11.944Z,39.40
2019-06-01T11:50:35.125Z,39.20
2019-06-01T11:52:56.890Z,40.40
2019-06-01T11:55:18.467Z,39.10
2019-06-01T11:57:41.470Z,38.80
2019-06-01T12:00:14.964Z,41.10
2019-06-01T12:02:37.463Z,40.50
2019-06-01T12:04:59.303Z,39.90
2019-06-01T12:07:21.177Z,40.60
2019-06-01T12:09:43.858Z,40.40
2019-06-01T12:12:05.565Z,41.10
2019-06-01T12:14:27.045Z,40.10
2019-06-01T12:16:48.534Z,39.90
2019-06-01T12:19:10.172Z,40.30
2019-06-01T12:21:31.761Z,40.50
2019-06-01T12:23:53.657Z,40.20
2019-06-01T12:26:15.320Z,39.70
2019-06-01T12:28:37.583Z,40.80
2019-06-01T12:30:59.390Z,39.40
2019-06-01T12:33:20.926Z,39.70
2019-06-01T12:35:42.430Z,40.10
2019-06-01T12:38:06.852Z,40.30
2019-06-01T12:40:27.446Z,40.60
2019-06-01T12:42:49.035Z,41.60
2019-06-01T12:45:15.837Z,39.70
2019-06-01T12:47:37.367Z,40.30
2019-06-01T12:49:58.854Z,40.10
2019-06-01T12:52:20.455Z,39.80
2019-06-01T12:54:42.942Z,39.70
2019-06-01T12:57:05.046Z,39.80
2019-06-01T12:59:26.548Z,38.60
2019-06-01T13:01:49.026Z,38.50
2019-06-01T13:04:10.977Z,38.70
2019-06-01T13:06:32.556Z,39.60
2019-06-01T13:08:59.927Z,39.10
2019-06-01T13:11:21.413Z,38.40
2019-06-01T13:13:43.378Z,38.80
2019-06-01T13:16:05.038Z,39.80
2019-06-01T13:18:26.650Z,40.10
2019-06-01T13:20:49.427Z,39.10
2019-06-01T13:23:11.067Z,38.30
2019-06-01T13:25:32.599Z,38.80
2019-06-01T13:27:54.178Z,39.60
2019-06-01T13:30:16.282Z,38.20
2019-06-01T13:32:37.770Z,39.10
2019-06-01T13:34:59.259Z,37.40
2019-06-01T13:37:20.894Z,37.70
2019-06-01T13:39:42.951Z,37.10
2019-06-01T13:42:04.679Z,37.80
2019-06-01T13:44:26.286Z,38.30
2019-06-01T13:46:47.983Z,37.20
2019-06-01T13:49:09.586Z,38.10
2019-06-01T13:51:31.183Z,37.10
2019-06-01T13:53:52.981Z,38.20
2019-06-01T13:56:14.707Z,36.60
2019-06-01T13:58:39.050Z,37.70
2019-06-01T14:01:00.666Z,37.50
2019-06-01T14:03:22.269Z,38.40
2019-06-01T14:05:44.707Z,38.90
2019-06-01T14:08:06.584Z,37.60
2019-06-01T14:10:28.275Z,38.00
2019-06-01T14:12:49.869Z,37.70
2019-06-01T14:15:11.893Z,38.20
2019-06-01T14:17:33.379Z,38.20
2019-06-01T14:19:55.883Z,37.90
2019-06-01T14:22:17.781Z,37.70
2019-06-01T14:24:43.563Z,37.30
2019-06-01T14:27:02.781Z,38.20
2019-06-01T14:29:24.421Z,37.20
2019-06-01T14:31:46.589Z,36.90
2019-06-01T14:34:08.406Z,37.50
2019-06-01T14:36:29.942Z,37.50
2019-06-01T14:38:54.320Z,37.00
2019-06-01T14:41:17.971Z,37.60
2019-06-01T14:43:39.611Z,37.50
2019-06-01T14:46:01.202Z,37.10
2019-06-01T14:48:23.066Z,38.40
2019-06-01T14:50:44.707Z,38.40
2019-06-01T14:53:06.178Z,39.10
2019-06-01T14:55:27.790Z,38.50
2019-06-01T14:57:50.045Z,37.00
2019-06-01T15:00:14.442Z,36.60
2019-06-01T15:02:36.030Z,37.50
2019-06-01T15:04:58.683Z,36.90
2019-06-01T15:07:20.785Z,37.10
2019-06-01T15:09:42.358Z,37.10
2019-06-01T15:12:04.298Z,36.70
2019-06-01T15:14:25.886Z,36.40
2019-06-01T15:16:47.361Z,36.50
2019-06-01T15:19:08.995Z,37.50
2019-06-01T15:21:30.461Z,38.10
2019-06-01T15:23:52.069Z,37.50
2019-06-01T15:26:13.580Z,36.20
2019-06-01T15:28:35.057Z,36.60
2019-06-01T15:30:57.120Z,37.50
2019-06-01T15:33:18.945Z,36.70
2019-06-01T15:35:40.433Z,36.90
2019-06-01T15:38:04.434Z,36.60
2019-06-01T15:40:25.343Z,36.60
2019-06-01T15:42:46.936Z,37.40
2019-06-01T15:45:09.619Z,37.60
2019-06-01T15:47:31.139Z,35.80
2019-06-01T15:49:53.587Z,36.50
2019-06-01T15:52:15.408Z,36.00
2019-06-01T15:54:36.938Z,36.60
2019-06-01T15:56:58.577Z,37.20
2019-06-01T15:59:20.137Z,37.20
2019-06-01T16:01:41.742Z,37.80
2019-06-01T16:04:03.434Z,38.40
2019-06-01T16:06:25.158Z,38.60
2019-06-01T16:08:46.672Z,37.70
2019-06-01T16:11:08.156Z,37.70
2019-06-01T16:13:29.762Z,37.30
2019-06-01T16:15:51.372Z,37.50
2019-06-01T16:18:12.954Z,38.20
2019-06-01T16:20:34.546Z,37.90
2019-06-01T16:22:56.164Z,36.80
2019-06-01T16:25:17.642Z,36.70
2019-06-01T16:27:39.232Z,37.20
2019-06-01T16:30:02.041Z,36.90
2019-06-01T16:32:24.247Z,37.30
2019-06-01T16:34:45.829Z,37.20
2019-06-01T16:37:07.357Z,36.40
2019-06-01T16:39:28.949Z,36.30
2019-06-01T16:41:50.529Z,35.50
2019-06-01T16:44:12.069Z,35.00
2019-06-01T16:46:33.638Z,34.80
2019-06-01T16:48:55.476Z,34.50
2019-06-01T16:51:17.254Z,34.10
2019-06-01T16:53:38.739Z,33.20
2019-06-01T16:56:00.321Z,32.70
2019-06-01T16:58:21.958Z,32.50
2019-06-01T17:00:43.546Z,31.80
2019-06-01T17:03:05.171Z,30.90
2019-06-01T17:05:26.881Z,30.50
2019-06-01T17:07:48.539Z,30.40
2019-06-01T17:10:24.599Z,30.70
2019-06-01T17:12:34.978Z,31.90
2019-06-01T17:14:56.841Z,33.40
2019-06-01T17:17:20.895Z,34.50
2019-06-01T17:19:42.497Z,35.50
2019-06-01T17:22:04.213Z,36.00
2019-06-01T17:24:25.791Z,37.30
2019-06-01T17:26:47.315Z,37.60
2019-06-01T17:29:08.906Z,38.10
2019-06-01T17:31:32.551Z,38.40
2019-06-01T17:33:54.424Z,38.90
2019-06-01T17:36:16.037Z,39.30
2019-06-01T17:38:37.970Z,39.60
2019-06-01T17:41:00.239Z,40.10
2019-06-01T17:43:22.007Z,40.50
2019-06-01T17:45:43.583Z,40.70
2019-06-01T17:48:19.424Z,41.40
2019-06-01T17:50:28.700Z,41.50
2019-06-01T17:52:50.236Z,42.00
2019-06-01T17:55:27.532Z,42.50
2019-06-01T17:57:48.946Z,42.50
2019-06-01T18:00:11.760Z,43.10
2019-06-01T18:02:33.301Z,42.80
2019-06-01T18:04:54.887Z,43.00
2019-06-01T18:07:16.358Z,43.20
2019-06-01T18:09:37.905Z,43.60
2019-06-01T18:11:59.388Z,43.60
2019-06-01T18:14:20.964Z,44.90
2019-06-01T18:16:42.927Z,44.60
2019-06-01T18:19:06.360Z,44.60
2019-06-01T18:21:27.839Z,44.70
2019-06-01T18:23:49.430Z,45.10
2019-06-01T18:26:11.291Z,45.10
2019-06-01T18:28:33.218Z,45.40
2019-06-01T18:30:56.232Z,45.30
2019-06-01T18:33:18.655Z,45.70
2019-06-01T18:35:40.117Z,46.10
2019-06-01T18:38:03.526Z,46.00
2019-06-01T18:40:25.433Z,46.60
2019-06-01T18:42:48.967Z,47.10
2019-06-01T18:45:11.733Z,47.30
2019-06-01T18:47:33.434Z,47.40
2019-06-01T18:49:55.037Z,48.20
2019-06-01T18:52:22.854Z,48.00
2019-06-01T18:54:44.553Z,48.00
2019-06-01T18:57:12.313Z,48.10
2019-06-01T18:59:29.589Z,48.40
2019-06-01T19:01:51.615Z,48.20
2019-06-01T19:04:13.844Z,47.80
2019-06-01T19:06:35.837Z,48.30
2019-06-01T19:08:57.431Z,49.50
2019-06-01T19:14:00.104Z,50.00
2019-06-01T19:16:21.582Z,49.90
2019-06-01T19:18:43.110Z,49.50
2019-06-01T19:21:04.721Z,49.60
2019-06-01T19:23:26.228Z,50.10
2019-06-01T19:25:49.001Z,50.00
2019-06-01T19:28:11.039Z,51.00
2019-06-01T19:30:38.432Z,51.60
2019-06-01T19:33:00.895Z,50.50
2019-06-01T19:35:22.494Z,50.00
2019-06-01T19:37:44.993Z,49.60
2019-06-01T19:40:09.305Z,50.50
2019-06-01T19:42:31.538Z,51.60
2019-06-01T19:44:53.023Z,52.10
2019-06-01T19:47:15.949Z,51.70
2019-06-01T19:49:37.867Z,50.80
2019-06-01T19:52:00.223Z,50.70
2019-06-01T19:54:22.706Z,51.40
2019-06-01T19:56:44.635Z,51.80
2019-06-01T19:59:06.239Z,52.00
2019-06-01T20:01:27.881Z,52.00
2019-06-01T20:03:49.466Z,52.10
2019-06-01T20:06:10.946Z,52.10
2019-06-01T20:08:32.488Z,52.00
2019-06-01T20:10:53.946Z,52.30
2019-06-01T20:13:15.549Z,52.70
2019-06-01T20:15:37.191Z,53.20
2019-06-01T20:17:58.703Z,53.20
2019-06-01T20:20:20.688Z,53.90
2019-06-01T20:22:42.224Z,54.40
2019-06-01T20:25:05.413Z,54.90
2019-06-01T20:27:27.013Z,55.30
2019-06-01T20:29:48.641Z,55.60
2019-06-01T20:32:11.640Z,56.40
2019-06-01T20:34:33.271Z,56.00
2019-06-01T20:36:54.804Z,56.50
2019-06-01T20:39:16.282Z,56.70
2019-06-01T20:41:37.750Z,57.00
2019-06-01T20:43:59.375Z,57.30
2019-06-01T20:46:21.014Z,57.60
2019-06-01T20:48:42.948Z,57.90
2019-06-01T20:51:04.809Z,58.20
2019-06-01T20:53:26.367Z,58.50
2019-06-01T20:55:48.293Z,58.70
2019-06-01T20:58:09.978Z,59.00
2019-06-01T21:00:32.024Z,58.90
2019-06-01T21:02:53.625Z,59.10
2019-06-01T21:05:15.832Z,59.50
2019-06-01T21:07:37.565Z,59.70
2019-06-01T21:09:59.112Z,59.90
2019-06-01T21:12:38.380Z,60.40
2019-06-01T21:14:44.213Z,60.30
2019-06-01T21:17:05.790Z,60.90
2019-06-01T21:19:27.264Z,61.60
2019-06-01T21:21:48.787Z,61.90
2019-06-01T21:24:10.279Z,62.50
2019-06-01T21:26:31.863Z,62.90
2019-06-01T21:28:53.356Z,63.30
2019-06-01T21:31:14.999Z,63.50
2019-06-01T21:33:36.526Z,64.00
2019-06-01T21:35:58.081Z,65.00
2019-06-01T21:38:19.645Z,64.50
2019-06-01T21:40:41.118Z,64.70
2019-06-01T21:43:20.250Z,65.20
2019-06-01T21:45:26.061Z,65.50
2019-06-01T21:47:47.545Z,65.70
2019-06-01T21:50:11.243Z,66.20
2019-06-01T21:52:33.035Z,66.20
2019-06-01T21:54:54.632Z,66.70
2019-06-01T21:57:16.150Z,66.70
2019-06-01T21:59:37.830Z,67.20
2019-06-01T22:01:59.518Z,67.20
2019-06-01T22:04:21.021Z,67.10
2019-06-01T22:06:46.193Z,67.20
2019-06-01T22:09:05.812Z,66.70
2019-06-01T22:11:27.617Z,67.00
2019-06-01T22:13:49.212Z,66.80
2019-06-01T22:16:10.703Z,67.10
2019-06-01T22:18:32.330Z,67.00
2019-06-01T22:20:53.829Z,67.30
2019-06-01T22:23:15.737Z,67.00
2019-06-01T22:25:37.249Z,67.00
2019-06-01T22:27:58.824Z,67.40
2019-06-01T22:30:20.433Z,67.50
2019-06-01T22:32:42.004Z,67.70
2019-06-01T22:35:08.226Z,68.00
2019-06-01T22:37:29.770Z,68.20
2019-06-01T22:39:51.428Z,68.30
2019-06-01T22:42:12.910Z,68.70
2019-06-01T22:44:34.501Z,68.70
2019-06-01T22:46:56.126Z,70.20
2019-06-01T22:49:17.705Z,69.70
2019-06-01T22:51:39.600Z,70.00
2019-06-01T22:54:01.121Z,70.50
2019-06-01T22:56:23.188Z,71.00
2019-06-01T22:58:45.070Z,70.80
2019-06-01T23:01:06.689Z,70.80
2019-06-01T23:03:28.277Z,70.70
2019-06-01T23:05:49.774Z,70.80
2019-06-01T23:08:11.284Z,70.80
2019-06-01T23:10:35.444Z,71.20
2019-06-01T23:12:56.624Z,71.30
2019-06-01T23:15:18.451Z,71.50
2019-06-01T23:17:39.950Z,71.40
2019-06-01T23:20:03.800Z,71.30
2019-06-01T23:22:26.000Z,71.10
2019-06-01T23:24:47.854Z,71.40
2019-06-01T23:27:09.475Z,71.20
2019-06-01T23:29:30.962Z,71.00
2019-06-01T23:31:52.873Z,71.10
2019-06-01T23:34:14.401Z,71.40
2019-06-01T23:36:36.324Z,71.50
2019-06-01T23:38:57.824Z,71.70
2019-06-01T23:41:19.434Z,71.60
2019-06-01T23:43:41.034Z,71.90
2019-06-01T23:46:02.509Z,72.10
2019-06-01T23:48:25.092Z,72.10
2019-06-01T23:50:47.180Z,71.70
2019-06-01T23:53:13.655Z,72.10
2019-06-01T23:55:32.200Z,71.90
2019-06-01T23:57:54.083Z,72.40
